createdAt,value
2018-04-07T00:02:03.513Z,3.57
2018-04-07T00:04:32.141Z,2.90
2018-04-07T00:06:59.657Z,4.57
2018-04-07T00:09:27.949Z,3.47
2018-04-07T00:11:55.457Z,4.50
2018-04-07T00:14:23.001Z,3.70
2018-04-07T00:16:50.516Z,6.30
2018-04-07T00:19:18.084Z,5.13
2018-04-07T00:21:45.592Z,3.87
2018-04-07T00:24:13.109Z,4.47
2018-04-07T00:26:40.637Z,3.87
2018-04-07T00:29:08.161Z,5.83
2018-04-07T00:31:35.693Z,4.93
2018-04-07T00:34:03.213Z,3.37
2018-04-07T00:36:30.745Z,4.27
2018-04-07T00:38:58.256Z,4.00
2018-04-07T00:41:25.829Z,3.23
2018-04-07T00:43:53.364Z,3.20
2018-04-07T00:46:21.219Z,4.70
2018-04-07T00:48:48.981Z,3.13
2018-04-07T00:51:16.518Z,2.83
2018-04-07T00:53:44.033Z,4.37
2018-04-07T00:56:11.566Z,5.43
2018-04-07T00:58:39.080Z,5.23
2018-04-07T01:01:06.614Z,5.30
2018-04-07T01:03:34.886Z,5.40
2018-04-07T01:06:03.202Z,4.80
2018-04-07T01:08:30.716Z,3.30
2018-04-07T01:10:59.037Z,4.90
2018-04-07T01:13:26.802Z,5.00
2018-04-07T01:15:54.329Z,4.00
2018-04-07T01:18:21.882Z,3.50
2018-04-07T01:20:49.400Z,4.17
2018-04-07T01:23:17.234Z,4.03
2018-04-07T01:25:44.758Z,2.90
2018-04-07T01:28:12.297Z,5.00
2018-04-07T01:30:40.573Z,4.40
2018-04-07T01:33:08.879Z,4.40
2018-04-07T01:35:36.393Z,5.70
2018-04-07T01:38:04.703Z,8.70
2018-04-07T01:40:32.238Z,6.43
2018-04-07T01:43:00.535Z,5.73
2018-04-07T01:45:28.102Z,3.80
2018-04-07T01:47:55.660Z,4.77
2018-04-07T01:50:23.178Z,7.70
2018-04-07T01:52:51.524Z,5.67
2018-04-07T01:55:19.043Z,5.17
2018-04-07T01:57:46.581Z,3.80
2018-04-07T02:00:14.136Z,4.97
2018-04-07T02:02:41.930Z,6.00
2018-04-07T02:05:09.461Z,5.70
2018-04-07T02:07:37.133Z,5.00
2018-04-07T02:10:04.909Z,5.50
2018-04-07T02:12:32.413Z,5.37
2018-04-07T02:15:00.724Z,5.03
2018-04-07T02:17:28.252Z,5.10
2018-04-07T02:19:56.557Z,6.73
2018-04-07T02:22:24.336Z,5.20
2018-04-07T02:24:51.877Z,5.03
2018-04-07T02:27:19.400Z,3.93
2018-04-07T02:29:47.707Z,4.73
2018-04-07T02:32:15.215Z,4.80
2018-04-07T02:34:42.763Z,4.50
2018-04-07T02:37:10.273Z,7.60
2018-04-07T02:39:38.050Z,5.77
2018-04-07T02:42:05.570Z,5.50
2018-04-07T02:44:33.110Z,4.47
2018-04-07T02:47:01.391Z,4.50
2018-04-07T02:49:28.941Z,4.80
2018-04-07T02:51:57.228Z,4.80
2018-04-07T02:54:24.762Z,6.00
2018-04-07T02:56:53.402Z,9.10
2018-04-07T02:59:20.935Z,4.63
2018-04-07T03:01:48.454Z,7.50
2018-04-07T03:04:16.785Z,4.90
2018-04-07T03:06:44.303Z,5.40
2018-04-07T03:09:12.629Z,5.87
2018-04-07T03:11:40.145Z,5.47
2018-04-07T03:14:07.654Z,9.23
2018-04-07T03:16:35.194Z,5.17
2018-04-07T03:19:02.704Z,5.83
2018-04-07T03:21:31.006Z,5.60
2018-04-07T03:23:58.525Z,5.37
2018-04-07T03:26:26.821Z,3.97
2018-04-07T03:28:54.337Z,5.77
2018-04-07T03:31:21.876Z,4.87
2018-04-07T03:33:49.616Z,7.33
2018-04-07T03:36:17.145Z,4.97
2018-04-07T03:38:44.941Z,5.50
2018-04-07T03:41:12.481Z,6.70
2018-04-07T03:43:39.999Z,5.30
2018-04-07T03:46:08.313Z,4.80
2018-04-07T03:48:35.832Z,4.77
2018-04-07T03:51:04.132Z,6.40
2018-04-07T03:53:31.660Z,5.57
2018-04-07T03:55:59.969Z,7.10
2018-04-07T03:58:27.749Z,4.63
2018-04-07T04:00:55.285Z,5.33
2018-04-07T04:03:23.066Z,9.03
2018-04-07T04:05:50.929Z,7.10
2018-04-07T04:08:18.692Z,6.37
2018-04-07T04:10:46.240Z,8.03
2018-04-07T04:13:13.757Z,9.50
2018-04-07T04:15:42.058Z,4.80
2018-04-07T04:18:09.569Z,5.13
2018-04-07T04:20:37.397Z,6.33
2018-04-07T04:23:04.908Z,7.23
2018-04-07T04:25:33.214Z,4.40
2018-04-07T04:28:00.726Z,7.13
2018-04-07T04:30:28.350Z,8.73
2018-04-07T04:32:56.629Z,5.63
2018-04-07T04:35:24.163Z,5.50
2018-04-07T04:37:51.676Z,5.47
2018-04-07T04:40:19.976Z,4.80
2018-04-07T04:42:47.522Z,9.10
2018-04-07T04:45:15.322Z,5.47
2018-04-07T04:47:43.081Z,7.73
2018-04-07T04:50:10.623Z,7.53
2018-04-07T04:52:38.133Z,5.47
2018-04-07T04:55:05.711Z,7.37
2018-04-07T04:57:33.197Z,6.40
2018-04-07T05:00:00.728Z,5.80
2018-04-07T05:02:28.257Z,5.20
2018-04-07T05:04:55.798Z,6.60
2018-04-07T05:07:23.363Z,9.60
2018-04-07T05:09:51.193Z,5.80
2018-04-07T05:12:18.954Z,5.57
2018-04-07T05:14:46.461Z,6.80
2018-04-07T05:17:14.764Z,8.60
2018-04-07T05:19:42.550Z,6.27
2018-04-07T05:22:10.086Z,7.30
2018-04-07T05:24:37.593Z,6.10
2018-04-07T05:27:05.130Z,11.73
2018-04-07T05:29:32.684Z,6.47
2018-04-07T05:32:00.465Z,7.80
2018-04-07T05:34:28.302Z,6.47
2018-04-07T05:36:56.159Z,6.50
2018-04-07T05:39:23.669Z,5.30
2018-04-07T05:41:51.976Z,6.87
2018-04-07T05:44:19.488Z,5.90
2018-04-07T05:46:47.800Z,4.83
2018-04-07T05:49:15.313Z,7.10
2018-04-07T05:51:43.164Z,5.77
2018-04-07T05:54:10.676Z,9.20
2018-04-07T05:56:38.226Z,6.90
2018-04-07T05:59:05.738Z,7.20
2018-04-07T06:01:33.274Z,7.27
2018-04-07T06:04:00.830Z,5.93
2018-04-07T06:06:28.385Z,10.77
2018-04-07T06:08:55.893Z,6.47
2018-04-07T06:11:23.437Z,11.17
2018-04-07T06:13:51.712Z,6.73
2018-04-07T06:16:20.018Z,6.53
2018-04-07T06:18:47.799Z,9.37
2018-04-07T06:21:15.339Z,9.00
2018-04-07T06:23:42.854Z,7.97
2018-04-07T06:26:10.381Z,8.63
2018-04-07T06:28:38.233Z,10.50
2018-04-07T06:31:06.637Z,10.90
2018-04-07T06:33:34.164Z,7.53
2018-04-07T06:36:01.711Z,6.97
2018-04-07T06:38:29.497Z,5.87
2018-04-07T06:40:57.034Z,6.77
2018-04-07T06:43:24.549Z,7.40
2018-04-07T06:45:52.856Z,7.47
2018-04-07T06:48:20.394Z,6.83
2018-04-07T06:50:47.930Z,7.00
2018-04-07T06:53:16.213Z,10.53
2018-04-07T06:55:44.542Z,7.83
2018-04-07T06:58:12.392Z,6.80
2018-04-07T07:00:40.257Z,5.57
2018-04-07T07:03:07.778Z,7.53
2018-04-07T07:05:35.328Z,8.87
2018-04-07T07:08:03.612Z,8.53
2018-04-07T07:10:31.149Z,9.47
2018-04-07T07:12:59.682Z,8.03
2018-04-07T07:15:27.233Z,7.77
2018-04-07T07:17:54.750Z,6.93
2018-04-07T07:20:23.061Z,7.73
2018-04-07T07:22:50.578Z,7.83
2018-04-07T07:25:18.894Z,6.57
2018-04-07T07:27:46.415Z,8.27
2018-04-07T07:30:14.702Z,5.00
2018-04-07T07:32:42.468Z,9.03
2018-04-07T07:35:10.254Z,5.90
2018-04-07T07:37:38.617Z,9.73
2018-04-07T07:40:06.389Z,6.50
2018-04-07T07:42:33.934Z,12.23
2018-04-07T07:45:01.462Z,6.50
2018-04-07T07:47:29.044Z,10.00
2018-04-07T07:49:56.551Z,5.20
2018-04-07T07:52:24.093Z,5.40
2018-04-07T07:54:51.940Z,6.33
2018-04-07T07:57:19.798Z,7.30
2018-04-07T07:59:47.320Z,6.47
2018-04-07T08:02:14.860Z,7.10
2018-04-07T08:04:43.389Z,8.53
2018-04-07T08:07:10.920Z,6.60
2018-04-07T08:09:38.428Z,8.17
2018-04-07T08:12:06.003Z,5.07
2018-04-07T08:14:34.305Z,5.50
2018-04-07T08:17:01.852Z,7.30
2018-04-07T08:19:29.653Z,6.77
2018-04-07T08:21:57.201Z,10.60
2018-04-07T08:24:24.718Z,10.80
2018-04-07T08:26:53.021Z,7.50
2018-04-07T08:29:20.558Z,7.93
2018-04-07T08:31:48.093Z,6.83
2018-04-07T08:34:15.617Z,10.70
2018-04-07T08:36:43.161Z,5.87
2018-04-07T08:39:10.926Z,5.30
2018-04-07T08:41:38.472Z,6.17
2018-04-07T08:44:05.993Z,8.50
2018-04-07T08:46:34.621Z,9.80
2018-04-07T08:49:02.133Z,7.93
2018-04-07T08:51:30.433Z,11.73
2018-04-07T08:53:57.956Z,9.80
2018-04-07T08:56:26.270Z,18.30
2018-04-07T08:58:53.799Z,8.17
2018-04-07T09:01:21.399Z,15.50
2018-04-07T09:03:48.921Z,8.10
2018-04-07T09:06:16.477Z,7.53
2018-04-07T09:08:44.001Z,12.30
2018-04-07T09:11:12.616Z,7.77
2018-04-07T09:13:40.144Z,6.70
2018-04-07T09:16:08.793Z,7.47
2018-04-07T09:18:36.323Z,7.93
2018-04-07T09:21:03.883Z,13.40
2018-04-07T09:23:31.662Z,6.83
2018-04-07T09:25:59.193Z,9.70
2018-04-07T09:28:26.978Z,7.20
2018-04-07T09:31:00.195Z,7.63
2018-04-07T09:33:27.729Z,10.37
2018-04-07T09:35:55.283Z,8.90
2018-04-07T09:38:22.808Z,8.63
2018-04-07T09:40:50.599Z,11.00
2018-04-07T09:43:18.461Z,8.00
2018-04-07T09:45:45.977Z,8.07
2018-04-07T09:48:13.526Z,6.40
2018-04-07T09:50:41.817Z,7.33
2018-04-07T09:53:09.356Z,7.97
2018-04-07T09:55:37.660Z,12.00
2018-04-07T09:58:05.200Z,8.10
2018-04-07T10:00:32.727Z,8.83
2018-04-07T10:03:01.075Z,8.17
2018-04-07T10:05:28.829Z,10.77
2018-04-07T10:07:56.365Z,7.70
2018-04-07T10:10:23.889Z,7.50
2018-04-07T10:12:52.217Z,9.03
2018-04-07T10:15:19.741Z,7.73
2018-04-07T10:17:47.600Z,8.00
2018-04-07T10:20:15.126Z,15.80
2018-04-07T10:22:42.644Z,8.17
2018-04-07T10:25:10.188Z,8.27
2018-04-07T10:27:37.714Z,6.77
2018-04-07T10:30:06.342Z,12.30
2018-04-07T10:32:34.205Z,7.77
2018-04-07T10:35:01.781Z,8.77
2018-04-07T10:37:29.306Z,10.30
2018-04-07T10:39:56.845Z,11.23
2018-04-07T10:42:24.370Z,11.30
2018-04-07T10:44:51.916Z,10.33
2018-04-07T10:47:19.489Z,7.40
2018-04-07T10:49:47.798Z,11.40
2018-04-07T10:52:15.321Z,11.53
2018-04-07T10:54:43.625Z,8.20
2018-04-07T10:57:11.146Z,11.57
2018-04-07T10:59:38.677Z,8.60
2018-04-07T11:02:06.525Z,8.77
2018-04-07T11:04:34.076Z,13.30
2018-04-07T11:07:01.617Z,8.60
2018-04-07T11:09:29.146Z,7.93
2018-04-07T11:11:56.684Z,9.33
2018-04-07T11:14:24.215Z,11.43
2018-04-07T11:16:51.754Z,7.77
2018-04-07T11:19:19.268Z,8.07
2018-04-07T11:21:47.574Z,9.20
2018-04-07T11:24:15.098Z,12.90
2018-04-07T11:26:43.413Z,10.20
2018-04-07T11:29:10.929Z,6.80
2018-04-07T11:31:38.490Z,10.03
2018-04-07T11:34:06.035Z,7.10
2018-04-07T11:36:34.445Z,10.73
2018-04-07T11:39:02.233Z,9.47
2018-04-07T11:41:29.769Z,9.90
2018-04-07T11:43:57.286Z,10.37
2018-04-07T11:46:25.618Z,10.00
2018-04-07T11:48:53.134Z,10.00
2018-04-07T11:51:20.681Z,8.10
2018-04-07T11:53:49.312Z,7.40
2018-04-07T11:56:16.831Z,10.73
2018-04-07T11:58:44.417Z,11.50
2018-04-07T12:01:12.300Z,9.93
2018-04-07T12:03:39.845Z,10.13
2018-04-07T12:06:07.369Z,14.87
2018-04-07T12:08:34.953Z,8.50
2018-04-07T12:11:02.470Z,8.80
2018-04-07T12:13:30.769Z,12.83
2018-04-07T12:15:58.303Z,7.50
2018-04-07T12:18:26.606Z,9.07
2018-04-07T12:20:54.129Z,8.77
2018-04-07T12:23:22.762Z,11.10
2018-04-07T12:25:50.289Z,15.43
2018-04-07T12:28:17.886Z,36.87
2018-04-07T12:30:45.402Z,16.27
2018-04-07T12:33:12.953Z,13.70
2018-04-07T12:35:40.486Z,15.73
2018-04-07T12:38:08.807Z,14.00
2018-04-07T12:40:36.338Z,10.33
2018-04-07T12:43:03.902Z,11.50
2018-04-07T12:45:31.426Z,7.90
2018-04-07T12:47:59.322Z,8.73
2018-04-07T12:50:26.842Z,8.43
2018-04-07T12:52:54.392Z,20.37
2018-04-07T12:55:21.912Z,8.40
2018-04-07T12:57:49.455Z,7.73
2018-04-07T13:00:16.969Z,7.63
2018-04-07T13:02:44.899Z,7.80
2018-04-07T13:05:12.436Z,8.93
2018-04-07T13:07:39.973Z,6.77
2018-04-07T13:10:07.776Z,7.57
2018-04-07T13:12:35.693Z,8.43
2018-04-07T13:15:03.202Z,8.93
2018-04-07T13:17:30.753Z,8.37
2018-04-07T13:19:58.269Z,7.23
2018-04-07T13:22:26.584Z,7.60
2018-04-07T13:24:54.097Z,8.10
2018-04-07T13:27:22.437Z,7.80
2018-04-07T13:29:50.174Z,7.93
2018-04-07T13:32:17.721Z,13.07
2018-04-07T13:34:45.238Z,8.30
2018-04-07T13:37:13.869Z,8.30
2018-04-07T13:39:41.386Z,6.60
2018-04-07T13:42:08.925Z,8.20
2018-04-07T13:44:37.217Z,7.50
2018-04-07T13:47:05.024Z,10.00
2018-04-07T13:49:32.542Z,5.20
2018-04-07T13:52:00.078Z,5.43
2018-04-07T13:54:27.612Z,7.20
2018-04-07T13:56:55.448Z,5.17
2018-04-07T13:59:23.313Z,5.33
2018-04-07T14:01:50.844Z,4.23
2018-04-07T14:04:18.525Z,5.87
2018-04-07T14:06:46.042Z,7.50
2018-04-07T14:09:13.588Z,8.27
2018-04-07T14:11:41.882Z,6.10
2018-04-07T14:14:09.683Z,372.17
2018-04-07T14:16:37.209Z,616.03
2018-04-07T14:19:04.786Z,707.43
2018-04-07T14:21:32.317Z,14.20
2018-04-07T14:23:59.923Z,131.67
2018-04-07T14:26:27.456Z,26.27
2018-04-07T14:28:55.010Z,24.90
2018-04-07T14:31:22.520Z,8.73
2018-04-07T14:33:50.831Z,6.30
2018-04-07T14:36:18.345Z,7.40
2018-04-07T14:38:45.913Z,9.73
2018-04-07T14:41:13.453Z,6.97
2018-04-07T14:43:41.284Z,5.30
2018-04-07T14:46:08.814Z,5.90
2018-04-07T14:48:36.358Z,4.30
2018-04-07T14:51:03.873Z,6.17
2018-04-07T14:53:31.385Z,3.40
2018-04-07T14:55:58.938Z,3.30
2018-04-07T14:58:26.459Z,6.47
2018-04-07T15:00:54.002Z,4.60
2018-04-07T15:03:21.557Z,5.33
2018-04-07T15:05:49.460Z,4.77
2018-04-07T15:08:16.976Z,4.17
2018-04-07T15:10:44.514Z,3.30
2018-04-07T15:13:12.029Z,5.93
2018-04-07T15:15:39.569Z,5.07
2018-04-07T15:18:08.106Z,3.70
2018-04-07T15:20:35.664Z,3.93
2018-04-07T15:23:03.421Z,3.50
2018-04-07T15:25:31.385Z,3.57
2018-04-07T15:27:59.217Z,4.10
2018-04-07T15:30:26.763Z,4.30
2018-04-07T15:32:55.046Z,2.80
2018-04-07T15:35:22.611Z,3.53
2018-04-07T15:37:50.412Z,4.00
2018-04-07T15:40:17.932Z,3.33
2018-04-07T15:42:45.474Z,7.80
2018-04-07T15:45:13.753Z,7.20
2018-04-07T15:47:41.550Z,4.13
2018-04-07T15:50:09.090Z,5.30
2018-04-07T15:52:36.657Z,2.40
2018-04-07T15:55:04.197Z,4.67
2018-04-07T15:57:31.747Z,3.50
2018-04-07T15:59:59.281Z,4.73
2018-04-07T16:02:27.601Z,4.80
2018-04-07T16:04:55.137Z,5.77
2018-04-07T16:07:22.682Z,1.90
2018-04-07T16:09:50.961Z,2.40
2018-04-07T16:12:18.510Z,6.17
2018-04-07T16:14:46.789Z,1.90
2018-04-07T16:17:14.330Z,2.60
2018-04-07T16:19:42.610Z,2.03
2018-04-07T16:22:10.916Z,2.57
2018-04-07T16:24:38.748Z,5.33
2018-04-07T16:27:07.385Z,2.67
2018-04-07T16:29:34.932Z,2.90
2018-04-07T16:32:02.465Z,5.13
2018-04-07T16:34:30.353Z,2.40
2018-04-07T16:36:58.113Z,3.73
2018-04-07T16:39:25.683Z,4.40
2018-04-07T16:41:53.432Z,4.50
2018-04-07T16:44:21.298Z,4.67
2018-04-07T16:46:48.825Z,5.40
2018-04-07T16:49:16.364Z,4.37
2018-04-07T16:51:44.641Z,4.70
2018-04-07T16:54:12.945Z,4.67
2018-04-07T16:56:40.461Z,4.00
2018-04-07T16:59:09.097Z,4.40
2018-04-07T17:01:36.867Z,3.63
2018-04-07T17:04:04.409Z,10.90
2018-04-07T17:06:31.934Z,5.23
2018-04-07T17:08:59.470Z,4.70
2018-04-07T17:11:27.759Z,6.40
2018-04-07T17:13:56.080Z,5.37
2018-04-07T17:16:23.836Z,3.10
2018-04-07T17:18:51.435Z,3.23
2018-04-07T17:21:18.954Z,7.10
2018-04-07T17:23:46.844Z,18.90
2018-04-07T17:26:14.650Z,10.13
2018-04-07T17:28:42.186Z,5.10
2018-04-07T17:31:10.473Z,12.50
2018-04-07T17:33:38.013Z,6.83
2018-04-07T17:36:06.302Z,8.27
2018-04-07T17:38:33.841Z,9.47
2018-04-07T17:41:02.125Z,5.53
2018-04-07T17:43:30.432Z,4.73
2018-04-07T17:45:57.989Z,3.77
2018-04-07T17:48:25.532Z,9.20
2018-04-07T17:50:53.055Z,3.87
2018-04-07T17:53:20.599Z,3.50
2018-04-07T17:55:48.126Z,12.53
2018-04-07T17:58:15.666Z,4.57
2018-04-07T18:00:43.184Z,4.63
2018-04-07T18:03:11.498Z,5.13
2018-04-07T18:05:39.013Z,4.97
2018-04-07T18:08:07.328Z,3.70
2018-04-07T18:10:34.841Z,7.17
2018-04-07T18:13:02.664Z,6.53
2018-04-07T18:15:30.182Z,8.57
2018-04-07T18:17:57.721Z,5.27
2018-04-07T18:20:26.004Z,4.90
2018-04-07T18:22:54.283Z,4.43
2018-04-07T18:25:21.832Z,3.80
2018-04-07T18:27:50.361Z,5.80
2018-04-07T18:30:17.901Z,5.30
2018-04-07T18:32:45.415Z,7.97
2018-04-07T18:35:12.988Z,4.33
2018-04-07T18:37:41.281Z,4.60
2018-04-07T18:40:08.829Z,6.30
2018-04-07T18:42:36.345Z,6.37
2018-04-07T18:45:03.898Z,5.43
2018-04-07T18:47:31.442Z,3.60
2018-04-07T18:49:58.986Z,4.00
2018-04-07T18:52:26.509Z,6.90
2018-04-07T18:54:54.049Z,6.37
2018-04-07T18:57:22.577Z,7.50
2018-04-07T18:59:51.193Z,7.90
2018-04-07T19:02:18.705Z,6.90
2018-04-07T19:04:46.356Z,8.90
2018-04-07T19:07:13.891Z,10.83
2018-04-07T19:09:41.444Z,7.50
2018-04-07T19:12:09.738Z,11.00
2018-04-07T19:14:37.289Z,10.77
2018-04-07T19:17:04.814Z,6.67
2018-04-07T19:19:32.363Z,8.80
2018-04-07T19:21:59.890Z,8.60
2018-04-07T19:24:27.431Z,9.70
2018-04-07T19:26:54.957Z,9.77
2018-04-07T19:29:22.517Z,7.67
2018-04-07T19:31:50.274Z,7.20
2018-04-07T19:34:17.858Z,6.30
2018-04-07T19:36:45.598Z,7.33
2018-04-07T19:39:13.150Z,10.83
2018-04-07T19:41:40.671Z,7.50
2018-04-07T19:44:08.436Z,7.37
2018-04-07T19:46:35.951Z,7.07
2018-04-07T19:49:03.497Z,5.60
2018-04-07T19:51:31.018Z,6.50
2018-04-07T19:53:58.566Z,7.73
2018-04-07T19:56:26.079Z,9.37
2018-04-07T19:58:53.624Z,5.37
2018-04-07T20:01:21.187Z,6.83
2018-04-07T20:03:48.731Z,6.57
2018-04-07T20:06:16.278Z,7.63
2018-04-07T20:08:44.901Z,7.80
2018-04-07T20:11:12.414Z,9.97
2018-04-07T20:13:40.731Z,8.03
2018-04-07T20:16:08.250Z,8.97
2018-04-07T20:18:36.105Z,7.23
2018-04-07T20:21:03.629Z,9.50
2018-04-07T20:23:31.177Z,6.87
2018-04-07T20:25:58.711Z,6.73
2018-04-07T20:28:26.251Z,7.13
2018-04-07T20:30:53.796Z,17.13
2018-04-07T20:33:22.076Z,9.00
2018-04-07T20:35:49.616Z,8.90
2018-04-07T20:38:17.903Z,8.50
2018-04-07T20:40:56.566Z,7.47
2018-04-07T20:43:24.144Z,7.93
2018-04-07T20:45:51.698Z,9.10
2018-04-07T20:48:19.236Z,9.10
2018-04-07T20:50:46.801Z,8.50
2018-04-07T20:53:15.139Z,15.00
2018-04-07T20:55:43.227Z,7.50
2018-04-07T20:58:10.754Z,7.50
2018-04-07T21:00:39.454Z,7.20
2018-04-07T21:03:07.225Z,8.47
2018-04-07T21:05:34.787Z,7.90
2018-04-07T21:08:02.314Z,6.83
2018-04-07T21:10:29.872Z,10.30
2018-04-07T21:12:57.418Z,8.23
2018-04-07T21:15:24.973Z,7.83
2018-04-07T21:17:52.533Z,7.67
2018-04-07T21:20:20.155Z,9.67
2018-04-07T21:22:47.793Z,6.80
2018-04-07T21:25:15.374Z,10.90
2018-04-07T21:27:42.906Z,9.17
2018-04-07T21:30:10.492Z,5.10
2018-04-07T21:32:38.032Z,8.23
2018-04-07T21:35:05.873Z,7.37
2018-04-07T21:37:33.390Z,5.90
2018-04-07T21:40:01.925Z,4.53
2018-04-07T21:42:29.773Z,5.50
2018-04-07T21:44:57.322Z,6.13
2018-04-07T21:47:24.844Z,6.77
2018-04-07T21:49:53.156Z,7.83
2018-04-07T21:52:20.674Z,5.40
2018-04-07T21:54:48.998Z,7.13
2018-04-07T21:57:16.863Z,5.73
2018-04-07T21:59:44.725Z,5.73
2018-04-07T22:02:12.252Z,7.70
2018-04-07T22:04:39.798Z,5.00
2018-04-07T22:07:07.321Z,6.23
2018-04-07T22:09:34.865Z,9.50
2018-04-07T22:12:02.392Z,5.13
2018-04-07T22:14:29.944Z,6.97
2018-04-07T22:16:57.514Z,5.00
2018-04-07T22:19:25.396Z,7.13
2018-04-07T22:21:52.922Z,7.10
2018-04-07T22:24:20.698Z,7.57
2018-04-07T22:26:48.461Z,5.83
2018-04-07T22:29:15.998Z,5.53
2018-04-07T22:31:43.515Z,5.30
2018-04-07T22:34:11.840Z,5.43
2018-04-07T22:36:39.366Z,6.90
2018-04-07T22:39:06.913Z,8.77
2018-04-07T22:41:35.206Z,5.17
2018-04-07T22:44:02.725Z,4.80
2018-04-07T22:46:30.554Z,8.93
2018-04-07T22:48:58.074Z,9.30
2018-04-07T22:51:25.621Z,7.07
2018-04-07T22:53:54.148Z,5.53
2018-04-07T22:56:21.691Z,7.47
2018-04-07T22:58:49.205Z,6.03
2018-04-07T23:01:17.527Z,6.13
2018-04-07T23:03:45.050Z,6.30
2018-04-07T23:06:12.593Z,5.80
2018-04-07T23:08:40.876Z,4.63
2018-04-07T23:11:08.441Z,6.13
2018-04-07T23:13:36.175Z,7.63
2018-04-07T23:16:04.516Z,6.77
2018-04-07T23:18:32.047Z,6.70
2018-04-07T23:20:59.647Z,6.53
2018-04-07T23:23:27.177Z,12.10
2018-04-07T23:25:55.051Z,5.20
2018-04-07T23:28:22.571Z,7.33
2018-04-07T23:30:50.110Z,6.27
2018-04-07T23:33:18.413Z,6.73
2018-04-07T23:35:45.954Z,4.93
2018-04-07T23:38:13.510Z,23.67
2018-04-07T23:40:41.078Z,4.60
2018-04-07T23:43:08.603Z,6.80
2018-04-07T23:45:36.750Z,6.57
2018-04-07T23:48:04.309Z,8.53
2018-04-07T23:50:32.153Z,9.20
2018-04-07T23:52:59.672Z,6.57
2018-04-07T23:55:27.247Z,9.03
2018-04-07T23:57:55.130Z,5.60
